BOX842 LPPT-EDDF
Flight info
| Callsign | BOX842 |
|---|---|
| Flight time | N/A |
| Altitude | 34000 |
| Route | IXIDA1N IXIDA DCT TOSDI DCT ZMR DCT NUBLO DCT RONSI DCT DELOG DCT PEXOD DCT DIDIG DCT TIRAV DCT ERJAZ DCT PIWIZ DCT TSU UN858 OQQAL DCT RANUX/N0478F370 DCT VALEK DCT LIPNI DCT LIMGO/N0478F350 Z111 TUTOV/N0445F230 Z111 RAMOB IMCOM1A |
| Aircraft | B77L/H-SDE1E2E3FGHIJ2J3J4J5M1RWXY/LB1D1 |
Departure
| Time | 2026-05-07 18:20 |
|---|---|
| Airport | Lisbon Humberto Delgado Airport (LPPT) |
Arrival
| Time | N/A |
|---|---|
| Airport | Frankfurt Main Airport (EDDF) |
| Time | Latitude | Longitude | Altitude | Speed | Heading |
|---|---|---|---|---|---|
| 2026-05-07 17:51 | 38.77975 | -9.12946 | 330 ft | 0 kts | 304° |
| 2026-05-07 18:04 | 38.77972 | -9.12940 | 330 ft | 0 kts | 304° |
| 2026-05-07 18:04 | 38.77965 | -9.12928 | 329 ft | 2 kts | 293° |
| 2026-05-07 18:05 | 38.77962 | -9.12909 | 328 ft | 2 kts | 272° |
| 2026-05-07 18:05 | 38.77963 | -9.12890 | 328 ft | 2 kts | 255° |
| 2026-05-07 18:05 | 38.77969 | -9.12872 | 327 ft | 2 kts | 236° |
| 2026-05-07 18:05 | 38.77978 | -9.12858 | 326 ft | 2 kts | 218° |
| 2026-05-07 18:06 | 38.77983 | -9.12853 | 326 ft | 1 kts | 212° |
| 2026-05-07 18:06 | 38.77985 | -9.12851 | 326 ft | 0 kts | 212° |
| 2026-05-07 18:09 | 38.77979 | -9.12856 | 326 ft | 3 kts | 212° |
| 2026-05-07 18:09 | 38.77943 | -9.12888 | 328 ft | 6 kts | 213° |
| 2026-05-07 18:09 | 38.77905 | -9.12918 | 328 ft | 6 kts | 212° |
| 2026-05-07 18:09 | 38.77855 | -9.12959 | 328 ft | 11 kts | 212° |
| 2026-05-07 18:10 | 38.77788 | -9.13029 | 330 ft | 11 kts | 236° |
| 2026-05-07 18:10 | 38.77767 | -9.13107 | 333 ft | 8 kts | 258° |
| 2026-05-07 18:10 | 38.77753 | -9.13194 | 335 ft | 10 kts | 259° |
| 2026-05-07 18:10 | 38.77740 | -9.13272 | 338 ft | 9 kts | 258° |
| 2026-05-07 18:11 | 38.77710 | -9.13359 | 341 ft | 12 kts | 211° |
| 2026-05-07 18:11 | 38.77610 | -9.13412 | 340 ft | 16 kts | 202° |
| 2026-05-07 18:11 | 38.77523 | -9.13462 | 341 ft | 9 kts | 208° |
| 2026-05-07 18:11 | 38.77464 | -9.13516 | 342 ft | 11 kts | 214° |
| 2026-05-07 18:12 | 38.77374 | -9.13526 | 340 ft | 13 kts | 172° |
| 2026-05-07 18:12 | 38.77274 | -9.13495 | 338 ft | 16 kts | 169° |
| 2026-05-07 18:12 | 38.77146 | -9.13462 | 338 ft | 19 kts | 168° |
| 2026-05-07 18:12 | 38.77027 | -9.13429 | 340 ft | 16 kts | 167° |
| 2026-05-07 18:13 | 38.76926 | -9.13401 | 341 ft | 13 kts | 168° |
| 2026-05-07 18:13 | 38.76835 | -9.13377 | 342 ft | 14 kts | 168° |
| 2026-05-07 18:13 | 38.76750 | -9.13381 | 342 ft | 12 kts | 206° |
| 2026-05-07 18:13 | 38.76677 | -9.13445 | 344 ft | 11 kts | 226° |
| 2026-05-07 18:14 | 38.76646 | -9.13549 | 345 ft | 13 kts | 257° |
| 2026-05-07 18:14 | 38.76624 | -9.13679 | 346 ft | 15 kts | 258° |
| 2026-05-07 18:14 | 38.76604 | -9.13802 | 346 ft | 13 kts | 258° |
| 2026-05-07 18:14 | 38.76585 | -9.13916 | 347 ft | 13 kts | 258° |
| 2026-05-07 18:15 | 38.76546 | -9.14033 | 345 ft | 14 kts | 233° |
| 2026-05-07 18:15 | 38.76495 | -9.14137 | 343 ft | 13 kts | 265° |
| 2026-05-07 18:15 | 38.76518 | -9.14244 | 342 ft | 11 kts | 292° |
| 2026-05-07 18:15 | 38.76534 | -9.14290 | 343 ft | 0 kts | 292° |
| 2026-05-07 18:16 | 38.76534 | -9.14291 | 343 ft | 0 kts | 292° |
| 2026-05-07 18:18 | 38.76537 | -9.14299 | 343 ft | 4 kts | 292° |
| 2026-05-07 18:18 | 38.76557 | -9.14364 | 344 ft | 9 kts | 292° |
| 2026-05-07 18:19 | 38.76597 | -9.14405 | 345 ft | 7 kts | 2° |
| 2026-05-07 18:19 | 38.76650 | -9.14385 | 346 ft | 9 kts | 21° |
| 2026-05-07 18:19 | 38.76752 | -9.14331 | 347 ft | 32 kts | 23° |
| 2026-05-07 18:19 | 38.77202 | -9.14090 | 355 ft | 107 kts | 22° |
| 2026-05-07 18:20 | 38.78099 | -9.13611 | 369 ft | 171 kts | 19° |
| 2026-05-07 18:20 | 38.79282 | -9.12974 | 789 ft | 193 kts | 20° |
| 2026-05-07 18:20 | 38.80485 | -9.12233 | 1784 ft | 190 kts | 25° |
| 2026-05-07 18:20 | 38.81627 | -9.11412 | 2430 ft | 196 kts | 27° |
| 2026-05-07 18:21 | 38.82865 | -9.10496 | 2811 ft | 216 kts | 27° |
| 2026-05-07 18:21 | 38.84202 | -9.09504 | 3347 ft | 230 kts | 28° |
| 2026-05-07 18:21 | 38.85640 | -9.08438 | 3842 ft | 248 kts | 29° |
| 2026-05-07 18:21 | 38.87189 | -9.07289 | 4368 ft | 266 kts | 30° |
| 2026-05-07 18:22 | 38.88811 | -9.06085 | 5010 ft | 278 kts | 32° |
| 2026-05-07 18:22 | 38.89880 | -9.05135 | 5549 ft | 280 kts | 41° |
| 2026-05-07 18:22 | 38.91830 | -9.02922 | 6613 ft | 286 kts | 45° |
| 2026-05-07 18:22 | 38.93288 | -9.01204 | 7498 ft | 288 kts | 45° |
| 2026-05-07 18:23 | 38.94767 | -8.99472 | 8276 ft | 292 kts | 45° |
| 2026-05-07 18:23 | 38.96285 | -8.97700 | 9061 ft | 296 kts | 45° |
| 2026-05-07 18:23 | 38.97796 | -8.95937 | 9818 ft | 299 kts | 45° |
| 2026-05-07 18:23 | 38.99346 | -8.94126 | 10406 ft | 309 kts | 45° |
| 2026-05-07 18:24 | 39.00975 | -8.92222 | 10820 ft | 326 kts | 44° |
| 2026-05-07 18:24 | 39.02686 | -8.90221 | 11266 ft | 342 kts | 44° |
| 2026-05-07 18:24 | 39.04480 | -8.88123 | 11755 ft | 357 kts | 44° |
| 2026-05-07 18:24 | 39.06371 | -8.85909 | 12293 ft | 373 kts | 44° |
| 2026-05-07 18:25 | 39.08313 | -8.83634 | 12859 ft | 387 kts | 44° |
| 2026-05-07 18:25 | 39.10341 | -8.81258 | 13419 ft | 401 kts | 44° |
| 2026-05-07 18:25 | 39.12434 | -8.78802 | 14158 ft | 410 kts | 44° |
| 2026-05-07 18:25 | 39.14531 | -8.76342 | 14996 ft | 415 kts | 43° |
| 2026-05-07 18:26 | 39.16666 | -8.73789 | 15873 ft | 420 kts | 46° |
| 2026-05-07 18:26 | 39.18621 | -8.71028 | 16659 ft | 426 kts | 49° |
| 2026-05-07 18:26 | 39.20598 | -8.68135 | 17463 ft | 432 kts | 49° |
| 2026-05-07 18:26 | 39.22575 | -8.65232 | 18210 ft | 438 kts | 49° |
| 2026-05-07 18:27 | 39.24587 | -8.62279 | 18972 ft | 444 kts | 49° |
| 2026-05-07 18:27 | 39.26627 | -8.59283 | 19706 ft | 450 kts | 48° |
| 2026-05-07 18:27 | 39.28706 | -8.56228 | 20431 ft | 456 kts | 48° |
| 2026-05-07 18:27 | 39.30808 | -8.53136 | 21155 ft | 461 kts | 48° |
| 2026-05-07 18:28 | 39.32928 | -8.50015 | 21830 ft | 467 kts | 48° |
| 2026-05-07 18:28 | 39.35087 | -8.46922 | 22444 ft | 472 kts | 44° |
| 2026-05-07 18:28 | 39.37419 | -8.43895 | 23083 ft | 478 kts | 43° |
| 2026-05-07 18:28 | 39.39790 | -8.40850 | 23798 ft | 482 kts | 43° |
| 2026-05-07 18:29 | 39.42172 | -8.37789 | 24450 ft | 487 kts | 43° |
| 2026-05-07 18:29 | 39.44582 | -8.34690 | 25037 ft | 493 kts | 44° |
| 2026-05-07 18:29 | 39.47009 | -8.31565 | 25618 ft | 499 kts | 43° |
| 2026-05-07 18:29 | 39.49496 | -8.28360 | 26197 ft | 505 kts | 43° |
| 2026-05-07 18:30 | 39.51961 | -8.25180 | 26791 ft | 510 kts | 43° |
| 2026-05-07 18:30 | 39.54496 | -8.21906 | 27378 ft | 515 kts | 43° |
| 2026-05-07 18:30 | 39.57022 | -8.18640 | 27940 ft | 521 kts | 43° |
| 2026-05-07 18:30 | 39.59590 | -8.15315 | 28579 ft | 525 kts | 43° |
| 2026-05-07 18:31 | 39.62172 | -8.11969 | 29193 ft | 529 kts | 43° |
| 2026-05-07 18:31 | 39.64767 | -8.08602 | 29879 ft | 531 kts | 42° |
| 2026-05-07 18:31 | 39.67387 | -8.05198 | 30719 ft | 529 kts | 42° |
| 2026-05-07 18:31 | 39.69960 | -8.01849 | 31596 ft | 526 kts | 42° |
| 2026-05-07 18:32 | 39.72530 | -7.98500 | 32364 ft | 525 kts | 41° |
| 2026-05-07 18:32 | 39.75108 | -7.95139 | 33051 ft | 524 kts | 41° |
| 2026-05-07 18:32 | 39.77743 | -7.91699 | 33683 ft | 524 kts | 41° |
| 2026-05-07 18:32 | 39.80347 | -7.88298 | 33865 ft | 529 kts | 41° |
| 2026-05-07 18:33 | 39.82980 | -7.84855 | 33872 ft | 526 kts | 41° |
| 2026-05-07 18:33 | 39.88147 | -7.78083 | 33873 ft | 522 kts | 40° |
| 2026-05-07 18:34 | 39.93309 | -7.71303 | 33877 ft | 524 kts | 41° |
| 2026-05-07 18:34 | 39.98418 | -7.64578 | 33871 ft | 524 kts | 40° |
| 2026-05-07 18:35 | 40.03543 | -7.57817 | 33873 ft | 524 kts | 40° |
| 2026-05-07 18:35 | 40.08656 | -7.51057 | 33877 ft | 524 kts | 40° |
| 2026-05-07 18:36 | 40.13754 | -7.44300 | 33878 ft | 522 kts | 40° |
| 2026-05-07 18:36 | 40.18843 | -7.37540 | 33868 ft | 523 kts | 40° |
| 2026-05-07 18:37 | 40.23916 | -7.30787 | 33863 ft | 523 kts | 41° |
| 2026-05-07 18:37 | 40.29018 | -7.23978 | 33859 ft | 521 kts | 40° |
| 2026-05-07 18:38 | 40.34066 | -7.17228 | 33863 ft | 524 kts | 40° |
| 2026-05-07 18:38 | 40.39144 | -7.10419 | 33870 ft | 522 kts | 40° |
| 2026-05-07 18:39 | 40.44229 | -7.03590 | 33870 ft | 524 kts | 40° |
| 2026-05-07 18:39 | 40.49278 | -6.96790 | 33866 ft | 522 kts | 40° |
| 2026-05-07 18:40 | 40.54341 | -6.89955 | 33868 ft | 521 kts | 40° |
| 2026-05-07 18:40 | 40.59393 | -6.83119 | 33862 ft | 520 kts | 40° |
| 2026-05-07 18:41 | 40.64397 | -6.76335 | 33865 ft | 523 kts | 40° |
| 2026-05-07 18:41 | 40.69437 | -6.69482 | 33865 ft | 518 kts | 40° |
| 2026-05-07 18:42 | 40.74470 | -6.62627 | 33866 ft | 519 kts | 40° |
| 2026-05-07 18:42 | 40.79442 | -6.55837 | 33868 ft | 518 kts | 40° |
| 2026-05-07 18:43 | 40.84409 | -6.49039 | 33873 ft | 517 kts | 40° |
| 2026-05-07 18:43 | 40.89429 | -6.42153 | 33870 ft | 519 kts | 40° |
| 2026-05-07 18:44 | 40.94380 | -6.35342 | 33871 ft | 514 kts | 39° |
| 2026-05-07 18:44 | 40.99369 | -6.28466 | 33860 ft | 517 kts | 40° |
| 2026-05-07 18:45 | 41.04589 | -6.22086 | 33861 ft | 509 kts | 35° |
| 2026-05-07 18:45 | 41.09885 | -6.15865 | 33860 ft | 511 kts | 35° |
| 2026-05-07 18:46 | 41.15158 | -6.09613 | 33868 ft | 509 kts | 36° |
| 2026-05-07 18:46 | 41.20419 | -6.03336 | 33870 ft | 512 kts | 35° |
| 2026-05-07 18:47 | 41.25677 | -5.97032 | 33870 ft | 506 kts | 35° |
| 2026-05-07 18:47 | 41.30878 | -5.90779 | 33870 ft | 507 kts | 35° |
| 2026-05-07 18:48 | 41.36102 | -5.84479 | 33873 ft | 507 kts | 35° |
| 2026-05-07 18:48 | 41.41316 | -5.78174 | 33873 ft | 504 kts | 35° |
| 2026-05-07 18:49 | 41.46508 | -5.71883 | 33870 ft | 509 kts | 35° |
| 2026-05-07 18:49 | 41.51744 | -5.65738 | 33869 ft | 496 kts | 28° |
| 2026-05-07 18:50 | 41.57659 | -5.61307 | 33878 ft | 481 kts | 15° |
| 2026-05-07 18:50 | 41.63779 | -5.57873 | 33881 ft | 482 kts | 15° |
| 2026-05-07 18:51 | 41.69953 | -5.54404 | 33876 ft | 478 kts | 15° |
| 2026-05-07 18:51 | 41.76086 | -5.50945 | 33880 ft | 480 kts | 15° |
| 2026-05-07 18:52 | 41.82214 | -5.47476 | 33879 ft | 478 kts | 15° |
| 2026-05-07 18:52 | 41.88366 | -5.43986 | 33884 ft | 482 kts | 15° |
| 2026-05-07 18:53 | 41.94489 | -5.40500 | 33884 ft | 477 kts | 15° |
| 2026-05-07 18:53 | 42.00587 | -5.37024 | 33890 ft | 480 kts | 16° |
| 2026-05-07 18:54 | 42.06710 | -5.33522 | 33880 ft | 477 kts | 16° |
| 2026-05-07 18:54 | 42.12861 | -5.30001 | 33888 ft | 480 kts | 17° |
| 2026-05-07 18:55 | 42.18996 | -5.26478 | 33888 ft | 479 kts | 17° |
| 2026-05-07 18:55 | 42.25077 | -5.22980 | 33890 ft | 479 kts | 17° |
| 2026-05-07 18:56 | 42.31193 | -5.19454 | 33897 ft | 480 kts | 17° |
| 2026-05-07 18:56 | 42.37320 | -5.15914 | 33892 ft | 477 kts | 17° |
| 2026-05-07 18:57 | 42.43410 | -5.12390 | 33896 ft | 479 kts | 18° |
| 2026-05-07 18:57 | 42.49507 | -5.08851 | 33898 ft | 478 kts | 18° |
| 2026-05-07 18:58 | 42.55628 | -5.05293 | 33905 ft | 479 kts | 18° |
| 2026-05-07 18:58 | 42.61708 | -5.01750 | 33903 ft | 479 kts | 18° |
| 2026-05-07 18:59 | 42.67842 | -4.98169 | 33897 ft | 479 kts | 18° |
| 2026-05-07 18:59 | 42.73947 | -4.94595 | 33906 ft | 480 kts | 18° |
| 2026-05-07 19:00 | 42.80061 | -4.91008 | 33904 ft | 478 kts | 19° |
| 2026-05-07 19:00 | 42.86146 | -4.87432 | 33902 ft | 479 kts | 19° |
| 2026-05-07 19:01 | 42.92259 | -4.83831 | 33918 ft | 480 kts | 19° |
| 2026-05-07 19:01 | 42.98375 | -4.80220 | 33909 ft | 480 kts | 19° |
| 2026-05-07 19:02 | 43.04476 | -4.76610 | 33928 ft | 480 kts | 19° |
| 2026-05-07 19:02 | 43.10611 | -4.72971 | 33920 ft | 479 kts | 19° |
| 2026-05-07 19:03 | 43.16733 | -4.69334 | 33911 ft | 481 kts | 19° |
| 2026-05-07 19:03 | 43.22827 | -4.65704 | 33905 ft | 480 kts | 19° |
| 2026-05-07 19:04 | 43.28945 | -4.62053 | 33900 ft | 480 kts | 19° |
| 2026-05-07 19:04 | 43.35072 | -4.58388 | 33893 ft | 482 kts | 20° |
| 2026-05-07 19:05 | 43.41170 | -4.54732 | 33873 ft | 481 kts | 20° |
| 2026-05-07 19:05 | 43.47303 | -4.51047 | 33867 ft | 482 kts | 20° |
| 2026-05-07 19:06 | 43.53431 | -4.47357 | 33874 ft | 483 kts | 20° |
| 2026-05-07 19:06 | 43.62642 | -4.41794 | 33868 ft | 482 kts | 20° |
| 2026-05-07 19:07 | 43.68764 | -4.38087 | 33879 ft | 483 kts | 20° |
| 2026-05-07 19:07 | 43.74891 | -4.34369 | 33878 ft | 483 kts | 21° |
| 2026-05-07 19:08 | 43.81043 | -4.30626 | 33877 ft | 483 kts | 21° |
| 2026-05-07 19:08 | 43.87199 | -4.26874 | 33895 ft | 484 kts | 21° |
| 2026-05-07 19:09 | 43.93374 | -4.23100 | 33896 ft | 484 kts | 21° |
| 2026-05-07 19:09 | 43.99512 | -4.19341 | 33895 ft | 485 kts | 21° |
| 2026-05-07 19:10 | 44.05657 | -4.15569 | 33891 ft | 485 kts | 21° |
| 2026-05-07 19:10 | 44.11809 | -4.11784 | 33902 ft | 485 kts | 21° |
| 2026-05-07 19:11 | 44.17990 | -4.07972 | 33902 ft | 486 kts | 21° |
| 2026-05-07 19:11 | 44.24149 | -4.04166 | 33904 ft | 485 kts | 21° |
| 2026-05-07 19:12 | 44.30284 | -4.00365 | 33907 ft | 486 kts | 21° |
| 2026-05-07 19:12 | 44.36149 | -3.95617 | 33909 ft | 490 kts | 32° |
| 2026-05-07 19:13 | 44.41762 | -3.90216 | 33905 ft | 491 kts | 32° |
| 2026-05-07 19:13 | 44.47361 | -3.84808 | 33912 ft | 491 kts | 32° |
| 2026-05-07 19:14 | 44.52978 | -3.79371 | 33915 ft | 493 kts | 33° |
| 2026-05-07 19:14 | 44.58595 | -3.73922 | 33911 ft | 492 kts | 32° |
| 2026-05-07 19:15 | 44.64212 | -3.68461 | 33920 ft | 494 kts | 33° |
| 2026-05-07 19:15 | 44.69850 | -3.62965 | 33921 ft | 493 kts | 33° |
| 2026-05-07 19:16 | 44.75493 | -3.57453 | 33924 ft | 496 kts | 33° |
| 2026-05-07 19:16 | 44.81160 | -3.51902 | 33925 ft | 496 kts | 33° |
| 2026-05-07 19:17 | 44.86787 | -3.46378 | 33933 ft | 496 kts | 33° |
| 2026-05-07 19:17 | 44.92445 | -3.40810 | 33935 ft | 497 kts | 33° |
| 2026-05-07 19:18 | 44.98092 | -3.35239 | 33940 ft | 499 kts | 33° |
| 2026-05-07 19:18 | 45.03780 | -3.29615 | 33939 ft | 500 kts | 34° |
| 2026-05-07 19:19 | 45.09456 | -3.23986 | 33937 ft | 499 kts | 34° |
| 2026-05-07 19:19 | 45.15121 | -3.18356 | 33932 ft | 499 kts | 34° |
| 2026-05-07 19:20 | 45.20807 | -3.12692 | 33936 ft | 500 kts | 34° |
| 2026-05-07 19:20 | 45.26438 | -3.07068 | 33936 ft | 500 kts | 35° |
| 2026-05-07 19:21 | 45.32115 | -3.01383 | 33937 ft | 500 kts | 35° |
| 2026-05-07 19:21 | 45.37739 | -2.95609 | 33938 ft | 501 kts | 36° |
| 2026-05-07 19:22 | 45.43384 | -2.89773 | 33942 ft | 500 kts | 36° |
| 2026-05-07 19:22 | 45.49005 | -2.83952 | 33943 ft | 501 kts | 36° |
| 2026-05-07 19:23 | 45.54634 | -2.78111 | 33944 ft | 501 kts | 36° |
| 2026-05-07 19:23 | 45.60226 | -2.72295 | 33941 ft | 502 kts | 36° |
| 2026-05-07 19:24 | 45.65856 | -2.66426 | 33944 ft | 502 kts | 36° |
| 2026-05-07 19:24 | 45.71476 | -2.60553 | 33944 ft | 503 kts | 36° |
| 2026-05-07 19:25 | 45.77098 | -2.54662 | 33946 ft | 503 kts | 36° |
| 2026-05-07 19:25 | 45.82749 | -2.48727 | 33948 ft | 502 kts | 36° |
| 2026-05-07 19:26 | 45.88352 | -2.42826 | 33957 ft | 503 kts | 36° |
| 2026-05-07 19:26 | 45.94005 | -2.36858 | 33955 ft | 504 kts | 36° |
| 2026-05-07 19:27 | 45.99626 | -2.30908 | 33948 ft | 504 kts | 37° |
| 2026-05-07 19:27 | 46.05160 | -2.24799 | 33952 ft | 504 kts | 43° |
| 2026-05-07 19:28 | 46.10016 | -2.17530 | 33955 ft | 504 kts | 48° |
| 2026-05-07 19:28 | 46.14780 | -2.10135 | 33951 ft | 504 kts | 48° |
| 2026-05-07 19:29 | 46.19499 | -2.02789 | 33951 ft | 504 kts | 48° |
| 2026-05-07 19:29 | 46.24271 | -1.95340 | 33948 ft | 504 kts | 48° |
| 2026-05-07 19:30 | 46.29022 | -1.87903 | 33948 ft | 504 kts | 48° |
| 2026-05-07 19:30 | 46.33736 | -1.80505 | 33948 ft | 505 kts | 48° |
| 2026-05-07 19:31 | 46.38465 | -1.73061 | 33950 ft | 504 kts | 48° |
| 2026-05-07 19:31 | 46.43225 | -1.65548 | 33947 ft | 505 kts | 48° |
| 2026-05-07 19:32 | 46.47929 | -1.58103 | 33949 ft | 505 kts | 48° |
| 2026-05-07 19:32 | 46.52681 | -1.50561 | 33952 ft | 505 kts | 48° |
| 2026-05-07 19:33 | 46.57388 | -1.43071 | 33952 ft | 505 kts | 48° |
| 2026-05-07 19:33 | 46.62113 | -1.35515 | 33953 ft | 505 kts | 48° |
| 2026-05-07 19:34 | 46.66817 | -1.27936 | 33954 ft | 505 kts | 49° |
| 2026-05-07 19:34 | 46.71492 | -1.20383 | 33955 ft | 506 kts | 49° |
| 2026-05-07 19:35 | 46.76217 | -1.12729 | 33952 ft | 505 kts | 49° |
| 2026-05-07 19:35 | 46.80880 | -1.05154 | 33947 ft | 505 kts | 49° |
| 2026-05-07 19:36 | 46.85578 | -0.97500 | 33954 ft | 505 kts | 49° |
| 2026-05-07 19:36 | 46.90245 | -0.89878 | 33953 ft | 505 kts | 49° |
| 2026-05-07 19:37 | 46.94909 | -0.82238 | 33958 ft | 507 kts | 49° |